sensor_id;sensor_type;location;lat;lon;timestamp;temperature;humidity
52765;DHT22;38650;44.536;18.664;2023-07-13T00:00:52;26.70;94.20
52765;DHT22;38650;44.536;18.664;2023-07-13T00:03:18;26.70;94.30
52765;DHT22;38650;44.536;18.664;2023-07-13T00:05:43;26.70;94.40
52765;DHT22;38650;44.536;18.664;2023-07-13T00:08:09;26.70;94.20
52765;DHT22;38650;44.536;18.664;2023-07-13T00:10:42;26.60;94.20
52765;DHT22;38650;44.536;18.664;2023-07-13T00:13:08;26.60;94.10
52765;DHT22;38650;44.536;18.664;2023-07-13T00:15:34;26.60;94.00
52765;DHT22;38650;44.536;18.664;2023-07-13T00:18:00;26.50;94.00
52765;DHT22;38650;44.536;18.664;2023-07-13T00:20:26;26.50;93.90
52765;DHT22;38650;44.536;18.664;2023-07-13T00:22:52;26.40;94.10
52765;DHT22;38650;44.536;18.664;2023-07-13T00:25:19;26.30;94.30
52765;DHT22;38650;44.536;18.664;2023-07-13T00:27:46;26.30;94.80
52765;DHT22;38650;44.536;18.664;2023-07-13T00:30:14;26.10;94.80
52765;DHT22;38650;44.536;18.664;2023-07-13T00:32:40;26.10;94.70
52765;DHT22;38650;44.536;18.664;2023-07-13T00:35:06;26.10;94.80
52765;DHT22;38650;44.536;18.664;2023-07-13T00:37:32;26.10;94.80
52765;DHT22;38650;44.536;18.664;2023-07-13T00:39:58;26.10;94.70
52765;DHT22;38650;44.536;18.664;2023-07-13T00:42:24;26.10;94.40
52765;DHT22;38650;44.536;18.664;2023-07-13T00:47:34;26.00;94.70
52765;DHT22;38650;44.536;18.664;2023-07-13T00:49:59;26.10;94.60
52765;DHT22;38650;44.536;18.664;2023-07-13T00:52:25;26.10;94.30
52765;DHT22;38650;44.536;18.664;2023-07-13T00:54:51;26.10;94.30
52765;DHT22;38650;44.536;18.664;2023-07-13T00:57:18;26.00;94.30
52765;DHT22;38650;44.536;18.664;2023-07-13T00:59:45;25.90;94.20
52765;DHT22;38650;44.536;18.664;2023-07-13T01:02:12;25.90;94.10
52765;DHT22;38650;44.536;18.664;2023-07-13T01:04:38;25.80;94.50
52765;DHT22;38650;44.536;18.664;2023-07-13T01:07:04;25.80;94.60
52765;DHT22;38650;44.536;18.664;2023-07-13T01:09:30;25.80;94.80
52765;DHT22;38650;44.536;18.664;2023-07-13T01:11:55;25.80;94.60
52765;DHT22;38650;44.536;18.664;2023-07-13T01:14:21;25.80;94.60
52765;DHT22;38650;44.536;18.664;2023-07-13T01:16:47;25.80;94.40
52765;DHT22;38650;44.536;18.664;2023-07-13T01:19:21;25.80;94.20
52765;DHT22;38650;44.536;18.664;2023-07-13T01:21:51;25.70;93.90
52765;DHT22;38650;44.536;18.664;2023-07-13T01:24:17;25.70;93.60
52765;DHT22;38650;44.536;18.664;2023-07-13T01:26:42;25.60;93.20
52765;DHT22;38650;44.536;18.664;2023-07-13T01:29:08;25.60;93.00
52765;DHT22;38650;44.536;18.664;2023-07-13T01:31:33;25.50;93.00
52765;DHT22;38650;44.536;18.664;2023-07-13T01:34:00;25.30;93.00
52765;DHT22;38650;44.536;18.664;2023-07-13T01:36:25;25.30;93.00
52765;DHT22;38650;44.536;18.664;2023-07-13T01:38:51;25.30;92.40
52765;DHT22;38650;44.536;18.664;2023-07-13T01:41:16;25.20;92.60
52765;DHT22;38650;44.536;18.664;2023-07-13T01:43:42;25.20;92.60
52765;DHT22;38650;44.536;18.664;2023-07-13T01:46:07;25.10;92.40
52765;DHT22;38650;44.536;18.664;2023-07-13T01:48:33;25.10;92.10
52765;DHT22;38650;44.536;18.664;2023-07-13T01:50:59;25.10;91.90
52765;DHT22;38650;44.536;18.664;2023-07-13T01:53:24;25.10;91.80
52765;DHT22;38650;44.536;18.664;2023-07-13T01:55:50;25.10;91.40
52765;DHT22;38650;44.536;18.664;2023-07-13T01:58:16;25.10;91.30
52765;DHT22;38650;44.536;18.664;2023-07-13T02:00:41;25.10;91.10
52765;DHT22;38650;44.536;18.664;2023-07-13T02:03:07;25.10;90.90
52765;DHT22;38650;44.536;18.664;2023-07-13T02:05:32;25.00;91.00
52765;DHT22;38650;44.536;18.664;2023-07-13T02:07:58;25.00;91.10
52765;DHT22;38650;44.536;18.664;2023-07-13T02:10:24;24.90;91.60
52765;DHT22;38650;44.536;18.664;2023-07-13T02:12:50;24.80;91.90
52765;DHT22;38650;44.536;18.664;2023-07-13T02:15:15;24.70;92.40
52765;DHT22;38650;44.536;18.664;2023-07-13T02:17:41;24.50;93.30
52765;DHT22;38650;44.536;18.664;2023-07-13T02:20:07;24.40;92.90
52765;DHT22;38650;44.536;18.664;2023-07-13T02:22:33;24.50;92.40
52765;DHT22;38650;44.536;18.664;2023-07-13T02:24:58;24.60;92.20
52765;DHT22;38650;44.536;18.664;2023-07-13T02:27:24;24.50;92.30
52765;DHT22;38650;44.536;18.664;2023-07-13T02:29:50;24.50;92.20
52765;DHT22;38650;44.536;18.664;2023-07-13T02:32:17;24.40;92.40
52765;DHT22;38650;44.536;18.664;2023-07-13T02:34:42;24.40;92.50
52765;DHT22;38650;44.536;18.664;2023-07-13T02:37:08;24.30;91.80
52765;DHT22;38650;44.536;18.664;2023-07-13T02:39:33;24.30;91.90
52765;DHT22;38650;44.536;18.664;2023-07-13T02:41:59;24.20;91.80
52765;DHT22;38650;44.536;18.664;2023-07-13T02:44:25;24.20;91.60
52765;DHT22;38650;44.536;18.664;2023-07-13T02:46:51;24.20;91.70
52765;DHT22;38650;44.536;18.664;2023-07-13T02:49:17;24.20;91.40
52765;DHT22;38650;44.536;18.664;2023-07-13T02:51:42;24.10;91.50
52765;DHT22;38650;44.536;18.664;2023-07-13T02:54:09;24.10;90.90
52765;DHT22;38650;44.536;18.664;2023-07-13T02:56:34;23.80;90.70
52765;DHT22;38650;44.536;18.664;2023-07-13T02:59:00;23.80;90.10
52765;DHT22;38650;44.536;18.664;2023-07-13T03:01:26;23.90;90.20
52765;DHT22;38650;44.536;18.664;2023-07-13T03:03:52;24.00;90.90
52765;DHT22;38650;44.536;18.664;2023-07-13T03:06:17;24.00;91.10
52765;DHT22;38650;44.536;18.664;2023-07-13T03:08:43;24.00;91.40
52765;DHT22;38650;44.536;18.664;2023-07-13T03:11:11;24.00;91.60
52765;DHT22;38650;44.536;18.664;2023-07-13T03:13:37;24.00;90.80
52765;DHT22;38650;44.536;18.664;2023-07-13T03:16:03;23.90;90.90
52765;DHT22;38650;44.536;18.664;2023-07-13T03:18:29;23.90;90.70
52765;DHT22;38650;44.536;18.664;2023-07-13T03:20:55;24.00;90.10
52765;DHT22;38650;44.536;18.664;2023-07-13T03:23:20;24.00;90.10
52765;DHT22;38650;44.536;18.664;2023-07-13T03:25:47;24.00;90.20
52765;DHT22;38650;44.536;18.664;2023-07-13T03:28:13;24.10;90.40
52765;DHT22;38650;44.536;18.664;2023-07-13T03:30:38;24.10;90.50
52765;DHT22;38650;44.536;18.664;2023-07-13T03:33:04;24.10;90.70
52765;DHT22;38650;44.536;18.664;2023-07-13T03:35:30;24.00;91.10
52765;DHT22;38650;44.536;18.664;2023-07-13T03:37:55;24.00;91.40
52765;DHT22;38650;44.536;18.664;2023-07-13T03:40:22;24.00;91.30
52765;DHT22;38650;44.536;18.664;2023-07-13T03:42:47;24.00;91.30
52765;DHT22;38650;44.536;18.664;2023-07-13T03:45:13;24.00;91.60
52765;DHT22;38650;44.536;18.664;2023-07-13T03:47:38;24.00;91.60
52765;DHT22;38650;44.536;18.664;2023-07-13T03:50:06;24.00;90.90
52765;DHT22;38650;44.536;18.664;2023-07-13T03:52:32;24.00;90.90
52765;DHT22;38650;44.536;18.664;2023-07-13T03:54:57;24.00;90.70
52765;DHT22;38650;44.536;18.664;2023-07-13T03:57:23;24.00;90.30
52765;DHT22;38650;44.536;18.664;2023-07-13T03:59:49;24.00;90.20
52765;DHT22;38650;44.536;18.664;2023-07-13T04:02:14;23.90;90.50
52765;DHT22;38650;44.536;18.664;2023-07-13T04:04:40;24.00;90.80
52765;DHT22;38650;44.536;18.664;2023-07-13T04:07:06;24.00;90.70
52765;DHT22;38650;44.536;18.664;2023-07-13T04:09:33;24.00;90.50
52765;DHT22;38650;44.536;18.664;2023-07-13T04:11:59;24.00;90.60
52765;DHT22;38650;44.536;18.664;2023-07-13T04:14:24;24.00;89.80
52765;DHT22;38650;44.536;18.664;2023-07-13T04:16:50;24.00;88.30
52765;DHT22;38650;44.536;18.664;2023-07-13T04:19:15;24.00;87.40
52765;DHT22;38650;44.536;18.664;2023-07-13T04:21:41;24.00;87.30
52765;DHT22;38650;44.536;18.664;2023-07-13T04:24:07;23.90;88.10
52765;DHT22;38650;44.536;18.664;2023-07-13T04:26:33;24.00;87.90
52765;DHT22;38650;44.536;18.664;2023-07-13T04:29:01;24.00;88.30
52765;DHT22;38650;44.536;18.664;2023-07-13T04:31:29;24.10;88.70
52765;DHT22;38650;44.536;18.664;2023-07-13T04:33:54;24.10;89.20
52765;DHT22;38650;44.536;18.664;2023-07-13T04:36:20;24.20;89.30
52765;DHT22;38650;44.536;18.664;2023-07-13T04:38:46;24.30;88.80
52765;DHT22;38650;44.536;18.664;2023-07-13T04:41:11;24.40;87.00
52765;DHT22;38650;44.536;18.664;2023-07-13T04:43:37;24.20;86.70
52765;DHT22;38650;44.536;18.664;2023-07-13T04:46:04;24.20;84.10
52765;DHT22;38650;44.536;18.664;2023-07-13T04:48:29;24.20;83.10
52765;DHT22;38650;44.536;18.664;2023-07-13T04:50:55;24.20;80.90
52765;DHT22;38650;44.536;18.664;2023-07-13T04:53:22;24.20;83.00
52765;DHT22;38650;44.536;18.664;2023-07-13T04:55:48;24.30;84.00
52765;DHT22;38650;44.536;18.664;2023-07-13T04:58:13;24.40;85.10
52765;DHT22;38650;44.536;18.664;2023-07-13T05:00:39;24.50;87.70
52765;DHT22;38650;44.536;18.664;2023-07-13T05:03:04;24.40;87.80
52765;DHT22;38650;44.536;18.664;2023-07-13T05:05:30;24.60;89.20
52765;DHT22;38650;44.536;18.664;2023-07-13T05:07:56;24.60;86.30
52765;DHT22;38650;44.536;18.664;2023-07-13T05:10:21;24.60;84.30
52765;DHT22;38650;44.536;18.664;2023-07-13T05:12:47;24.80;82.50
52765;DHT22;38650;44.536;18.664;2023-07-13T05:15:13;24.90;82.50
52765;DHT22;38650;44.536;18.664;2023-07-13T05:17:39;25.00;82.90
52765;DHT22;38650;44.536;18.664;2023-07-13T05:20:06;25.00;83.40
52765;DHT22;38650;44.536;18.664;2023-07-13T05:22:32;25.10;84.10
52765;DHT22;38650;44.536;18.664;2023-07-13T05:24:57;25.20;83.30
52765;DHT22;38650;44.536;18.664;2023-07-13T05:27:23;25.40;83.70
52765;DHT22;38650;44.536;18.664;2023-07-13T05:29:49;25.40;82.40
52765;DHT22;38650;44.536;18.664;2023-07-13T05:32:15;25.50;82.10
52765;DHT22;38650;44.536;18.664;2023-07-13T05:34:40;25.50;81.10
52765;DHT22;38650;44.536;18.664;2023-07-13T05:37:06;25.50;80.30
52765;DHT22;38650;44.536;18.664;2023-07-13T05:39:31;25.60;80.20
52765;DHT22;38650;44.536;18.664;2023-07-13T05:41:57;25.60;79.70
52765;DHT22;38650;44.536;18.664;2023-07-13T05:44:22;25.70;79.30
52765;DHT22;38650;44.536;18.664;2023-07-13T05:46:48;25.80;79.00
52765;DHT22;38650;44.536;18.664;2023-07-13T05:49:14;25.80;78.80
52765;DHT22;38650;44.536;18.664;2023-07-13T05:51:39;26.00;78.10
52765;DHT22;38650;44.536;18.664;2023-07-13T05:54:05;26.00;78.40
52765;DHT22;38650;44.536;18.664;2023-07-13T05:56:30;26.10;78.30
52765;DHT22;38650;44.536;18.664;2023-07-13T05:58:56;26.20;79.60
52765;DHT22;38650;44.536;18.664;2023-07-13T06:01:22;26.40;78.40
52765;DHT22;38650;44.536;18.664;2023-07-13T06:03:48;26.50;78.10
52765;DHT22;38650;44.536;18.664;2023-07-13T06:06:14;26.80;77.70
52765;DHT22;38650;44.536;18.664;2023-07-13T06:08:40;27.00;75.90
52765;DHT22;38650;44.536;18.664;2023-07-13T06:11:16;27.20;76.70
52765;DHT22;38650;44.536;18.664;2023-07-13T06:13:43;27.40;76.40
52765;DHT22;38650;44.536;18.664;2023-07-13T06:16:08;27.60;76.30
52765;DHT22;38650;44.536;18.664;2023-07-13T06:18:34;27.70;76.50
52765;DHT22;38650;44.536;18.664;2023-07-13T06:21:01;27.70;76.30
52765;DHT22;38650;44.536;18.664;2023-07-13T06:23:26;27.70;74.90
52765;DHT22;38650;44.536;18.664;2023-07-13T06:25:52;27.80;74.40
52765;DHT22;38650;44.536;18.664;2023-07-13T06:28:18;27.80;75.80
52765;DHT22;38650;44.536;18.664;2023-07-13T06:30:43;27.70;76.50
52765;DHT22;38650;44.536;18.664;2023-07-13T06:33:09;27.80;76.50
52765;DHT22;38650;44.536;18.664;2023-07-13T06:35:34;28.00;76.20
52765;DHT22;38650;44.536;18.664;2023-07-13T06:38:00;28.30;75.00
52765;DHT22;38650;44.536;18.664;2023-07-13T06:40:25;28.40;74.60
52765;DHT22;38650;44.536;18.664;2023-07-13T06:42:53;28.50;71.70
52765;DHT22;38650;44.536;18.664;2023-07-13T06:45:19;28.60;72.90
52765;DHT22;38650;44.536;18.664;2023-07-13T06:47:44;28.70;73.30
52765;DHT22;38650;44.536;18.664;2023-07-13T06:50:10;29.00;73.30
52765;DHT22;38650;44.536;18.664;2023-07-13T06:52:35;29.10;73.20
52765;DHT22;38650;44.536;18.664;2023-07-13T06:55:01;29.20;70.70
52765;DHT22;38650;44.536;18.664;2023-07-13T06:57:26;29.20;71.70
52765;DHT22;38650;44.536;18.664;2023-07-13T06:59:52;29.30;70.40
52765;DHT22;38650;44.536;18.664;2023-07-13T07:02:18;29.40;67.40
52765;DHT22;38650;44.536;18.664;2023-07-13T07:04:43;29.70;67.10
52765;DHT22;38650;44.536;18.664;2023-07-13T07:07:09;29.90;71.00
52765;DHT22;38650;44.536;18.664;2023-07-13T07:09:34;30.10;68.00
52765;DHT22;38650;44.536;18.664;2023-07-13T07:12:00;30.10;67.70
52765;DHT22;38650;44.536;18.664;2023-07-13T07:14:26;30.10;68.30
52765;DHT22;38650;44.536;18.664;2023-07-13T07:16:51;30.30;67.90
52765;DHT22;38650;44.536;18.664;2023-07-13T07:19:17;30.60;70.20
52765;DHT22;38650;44.536;18.664;2023-07-13T07:21:42;30.80;70.90
52765;DHT22;38650;44.536;18.664;2023-07-13T07:24:08;31.10;69.20
52765;DHT22;38650;44.536;18.664;2023-07-13T07:26:34;31.20;66.60
52765;DHT22;38650;44.536;18.664;2023-07-13T07:28:59;31.30;66.80
52765;DHT22;38650;44.536;18.664;2023-07-13T07:31:25;31.50;67.50
52765;DHT22;38650;44.536;18.664;2023-07-13T07:33:50;31.70;63.20
52765;DHT22;38650;44.536;18.664;2023-07-13T07:36:16;31.80;59.60
52765;DHT22;38650;44.536;18.664;2023-07-13T07:38:42;32.00;63.40
52765;DHT22;38650;44.536;18.664;2023-07-13T07:41:08;32.60;61.80
52765;DHT22;38650;44.536;18.664;2023-07-13T07:43:33;34.30;59.80
52765;DHT22;38650;44.536;18.664;2023-07-13T07:45:59;36.20;56.00
52765;DHT22;38650;44.536;18.664;2023-07-13T07:48:25;37.60;53.80
52765;DHT22;38650;44.536;18.664;2023-07-13T07:50:50;38.80;49.20
52765;DHT22;38650;44.536;18.664;2023-07-13T07:53:16;39.50;49.00
52765;DHT22;38650;44.536;18.664;2023-07-13T07:55:42;40.20;47.40
52765;DHT22;38650;44.536;18.664;2023-07-13T07:58:07;40.80;46.30
52765;DHT22;38650;44.536;18.664;2023-07-13T08:00:33;41.40;45.60
52765;DHT22;38650;44.536;18.664;2023-07-13T08:02:59;41.80;44.30
52765;DHT22;38650;44.536;18.664;2023-07-13T08:05:24;42.10;44.40
52765;DHT22;38650;44.536;18.664;2023-07-13T08:07:50;42.50;42.50
52765;DHT22;38650;44.536;18.664;2023-07-13T08:10:16;42.60;42.10
52765;DHT22;38650;44.536;18.664;2023-07-13T08:12:41;42.80;40.20
52765;DHT22;38650;44.536;18.664;2023-07-13T08:15:09;43.00;42.00
52765;DHT22;38650;44.536;18.664;2023-07-13T08:17:35;43.10;40.60
52765;DHT22;38650;44.536;18.664;2023-07-13T08:20:01;43.00;39.60
52765;DHT22;38650;44.536;18.664;2023-07-13T08:22:27;43.10;41.70
52765;DHT22;38650;44.536;18.664;2023-07-13T08:24:52;43.50;40.20
52765;DHT22;38650;44.536;18.664;2023-07-13T08:27:21;43.60;40.20
52765;DHT22;38650;44.536;18.664;2023-07-13T08:29:47;43.70;39.90
52765;DHT22;38650;44.536;18.664;2023-07-13T08:32:13;43.60;40.00
52765;DHT22;38650;44.536;18.664;2023-07-13T08:34:39;43.70;40.10
52765;DHT22;38650;44.536;18.664;2023-07-13T08:37:05;43.40;41.20
52765;DHT22;38650;44.536;18.664;2023-07-13T08:39:31;43.50;40.60
52765;DHT22;38650;44.536;18.664;2023-07-13T08:41:58;43.80;40.60
52765;DHT22;38650;44.536;18.664;2023-07-13T08:47:10;43.80;38.90
52765;DHT22;38650;44.536;18.664;2023-07-13T08:49:37;43.90;39.70
52765;DHT22;38650;44.536;18.664;2023-07-13T08:52:11;43.70;40.10
52765;DHT22;38650;44.536;18.664;2023-07-13T08:54:41;43.70;38.40
52765;DHT22;38650;44.536;18.664;2023-07-13T08:57:15;43.60;36.90
52765;DHT22;38650;44.536;18.664;2023-07-13T08:59:42;43.20;38.90
52765;DHT22;38650;44.536;18.664;2023-07-13T09:04:59;43.40;38.80
52765;DHT22;38650;44.536;18.664;2023-07-13T09:10:20;43.40;40.40
52765;DHT22;38650;44.536;18.664;2023-07-13T09:17:52;43.70;39.90
52765;DHT22;38650;44.536;18.664;2023-07-13T09:20:28;43.70;41.70
52765;DHT22;38650;44.536;18.664;2023-07-13T09:22:55;43.40;40.50
52765;DHT22;38650;44.536;18.664;2023-07-13T09:27:47;43.10;42.10
52765;DHT22;38650;44.536;18.664;2023-07-13T09:32:39;43.40;42.80
52765;DHT22;38650;44.536;18.664;2023-07-13T09:35:10;43.40;40.00
52765;DHT22;38650;44.536;18.664;2023-07-13T09:37:36;43.60;40.70
52765;DHT22;38650;44.536;18.664;2023-07-13T09:40:02;43.60;41.20
52765;DHT22;38650;44.536;18.664;2023-07-13T09:42:34;43.20;40.80
52765;DHT22;38650;44.536;18.664;2023-07-13T09:45:01;42.70;40.30
52765;DHT22;38650;44.536;18.664;2023-07-13T09:47:32;42.80;40.70
52765;DHT22;38650;44.536;18.664;2023-07-13T09:50:09;43.10;42.80
52765;DHT22;38650;44.536;18.664;2023-07-13T09:52:45;43.00;41.20
52765;DHT22;38650;44.536;18.664;2023-07-13T09:57:48;42.60;42.00
52765;DHT22;38650;44.536;18.664;2023-07-13T10:00:25;42.70;40.40
52765;DHT22;38650;44.536;18.664;2023-07-13T10:02:58;42.30;40.10
52765;DHT22;38650;44.536;18.664;2023-07-13T10:05:24;42.60;41.90
52765;DHT22;38650;44.536;18.664;2023-07-13T10:07:51;42.80;39.70
52765;DHT22;38650;44.536;18.664;2023-07-13T10:10:21;42.60;39.60
52765;DHT22;38650;44.536;18.664;2023-07-13T10:12:48;42.30;39.40
52765;DHT22;38650;44.536;18.664;2023-07-13T10:15:18;42.30;38.90
52765;DHT22;38650;44.536;18.664;2023-07-13T10:17:45;42.50;38.30
52765;DHT22;38650;44.536;18.664;2023-07-13T10:20:10;42.60;42.10
52765;DHT22;38650;44.536;18.664;2023-07-13T10:25:22;41.80;39.00
52765;DHT22;38650;44.536;18.664;2023-07-13T10:27:50;42.10;43.50
52765;DHT22;38650;44.536;18.664;2023-07-13T10:30:19;42.60;39.10
52765;DHT22;38650;44.536;18.664;2023-07-13T10:32:53;42.70;36.60
52765;DHT22;38650;44.536;18.664;2023-07-13T10:35:20;42.40;37.60
52765;DHT22;38650;44.536;18.664;2023-07-13T10:37:49;42.00;42.80
52765;DHT22;38650;44.536;18.664;2023-07-13T10:40:18;42.00;38.40
52765;DHT22;38650;44.536;18.664;2023-07-13T10:42:45;42.20;39.40
52765;DHT22;38650;44.536;18.664;2023-07-13T10:45:20;42.10;37.60
52765;DHT22;38650;44.536;18.664;2023-07-13T10:47:46;42.20;40.70
52765;DHT22;38650;44.536;18.664;2023-07-13T10:50:17;42.10;38.90
52765;DHT22;38650;44.536;18.664;2023-07-13T10:52:46;42.10;38.30
52765;DHT22;38650;44.536;18.664;2023-07-13T10:55:31;42.20;40.60
52765;DHT22;38650;44.536;18.664;2023-07-13T10:58:00;42.30;41.30
52765;DHT22;38650;44.536;18.664;2023-07-13T11:00:26;42.20;39.40
52765;DHT22;38650;44.536;18.664;2023-07-13T11:02:56;42.50;43.10
52765;DHT22;38650;44.536;18.664;2023-07-13T11:05:26;42.70;42.30
52765;DHT22;38650;44.536;18.664;2023-07-13T11:07:55;42.80;39.90
52765;DHT22;38650;44.536;18.664;2023-07-13T11:11:06;42.90;41.30
52765;DHT22;38650;44.536;18.664;2023-07-13T11:13:27;43.00;41.00
52765;DHT22;38650;44.536;18.664;2023-07-13T11:15:53;43.10;41.60
52765;DHT22;38650;44.536;18.664;2023-07-13T11:18:19;43.00;40.60
52765;DHT22;38650;44.536;18.664;2023-07-13T11:20:46;43.20;41.60
52765;DHT22;38650;44.536;18.664;2023-07-13T11:25:41;43.20;39.60
52765;DHT22;38650;44.536;18.664;2023-07-13T11:33:17;42.70;39.40
52765;DHT22;38650;44.536;18.664;2023-07-13T11:38:12;42.90;40.60
52765;DHT22;38650;44.536;18.664;2023-07-13T11:40:38;42.60;41.00
52765;DHT22;38650;44.536;18.664;2023-07-13T11:43:05;42.30;39.70
52765;DHT22;38650;44.536;18.664;2023-07-13T11:45:32;41.70;41.40
52765;DHT22;38650;44.536;18.664;2023-07-13T11:47:58;41.60;42.80
52765;DHT22;38650;44.536;18.664;2023-07-13T11:50:26;41.40;42.00
52765;DHT22;38650;44.536;18.664;2023-07-13T11:52:52;41.40;40.70
52765;DHT22;38650;44.536;18.664;2023-07-13T11:55:20;41.20;40.40
52765;DHT22;38650;44.536;18.664;2023-07-13T11:57:50;41.10;42.90
52765;DHT22;38650;44.536;18.664;2023-07-13T12:00:21;41.40;45.50
52765;DHT22;38650;44.536;18.664;2023-07-13T12:02:47;41.50;43.50
52765;DHT22;38650;44.536;18.664;2023-07-13T12:05:17;41.30;44.60
52765;DHT22;38650;44.536;18.664;2023-07-13T12:07:43;41.10;45.20
52765;DHT22;38650;44.536;18.664;2023-07-13T12:12:37;41.10;44.50
52765;DHT22;38650;44.536;18.664;2023-07-13T12:15:08;40.70;43.60
52765;DHT22;38650;44.536;18.664;2023-07-13T12:17:34;40.30;46.40
52765;DHT22;38650;44.536;18.664;2023-07-13T12:19:59;40.00;45.90
52765;DHT22;38650;44.536;18.664;2023-07-13T12:22:25;39.90;46.20
52765;DHT22;38650;44.536;18.664;2023-07-13T12:24:50;40.00;45.50
52765;DHT22;38650;44.536;18.664;2023-07-13T12:27:24;40.20;45.10
52765;DHT22;38650;44.536;18.664;2023-07-13T12:29:58;40.30;48.00
52765;DHT22;38650;44.536;18.664;2023-07-13T12:32:24;40.50;46.10
52765;DHT22;38650;44.536;18.664;2023-07-13T12:34:51;40.30;44.60
52765;DHT22;38650;44.536;18.664;2023-07-13T12:37:16;40.30;48.00
52765;DHT22;38650;44.536;18.664;2023-07-13T12:39:46;40.40;46.90
52765;DHT22;38650;44.536;18.664;2023-07-13T12:44:49;40.50;45.60
52765;DHT22;38650;44.536;18.664;2023-07-13T12:47:15;40.70;46.80
52765;DHT22;38650;44.536;18.664;2023-07-13T12:49:48;40.80;48.30
52765;DHT22;38650;44.536;18.664;2023-07-13T12:52:22;40.90;47.60
52765;DHT22;38650;44.536;18.664;2023-07-13T12:54:55;41.20;46.20
52765;DHT22;38650;44.536;18.664;2023-07-13T12:57:22;41.40;46.60
52765;DHT22;38650;44.536;18.664;2023-07-13T12:59:51;41.50;45.00
52765;DHT22;38650;44.536;18.664;2023-07-13T13:02:30;41.60;43.30
52765;DHT22;38650;44.536;18.664;2023-07-13T13:04:57;41.80;45.50
52765;DHT22;38650;44.536;18.664;2023-07-13T13:07:23;41.60;45.10
52765;DHT22;38650;44.536;18.664;2023-07-13T13:09:49;41.50;44.90
52765;DHT22;38650;44.536;18.664;2023-07-13T13:12:15;41.70;45.20
52765;DHT22;38650;44.536;18.664;2023-07-13T13:14:42;41.70;44.70
52765;DHT22;38650;44.536;18.664;2023-07-13T13:17:24;41.70;45.00
52765;DHT22;38650;44.536;18.664;2023-07-13T13:19:52;41.60;44.20
52765;DHT22;38650;44.536;18.664;2023-07-13T13:22:21;41.70;44.60
52765;DHT22;38650;44.536;18.664;2023-07-13T13:24:47;41.70;45.20
52765;DHT22;38650;44.536;18.664;2023-07-13T13:27:16;41.60;44.30
52765;DHT22;38650;44.536;18.664;2023-07-13T13:29:42;41.40;44.90
52765;DHT22;38650;44.536;18.664;2023-07-13T13:32:10;41.20;45.00
52765;DHT22;38650;44.536;18.664;2023-07-13T13:34:37;41.40;42.90
52765;DHT22;38650;44.536;18.664;2023-07-13T13:37:02;41.40;43.40
52765;DHT22;38650;44.536;18.664;2023-07-13T13:39:35;41.50;45.00
52765;DHT22;38650;44.536;18.664;2023-07-13T13:42:01;41.40;43.40
52765;DHT22;38650;44.536;18.664;2023-07-13T13:44:26;41.20;43.30
52765;DHT22;38650;44.536;18.664;2023-07-13T13:46:53;41.00;44.00
52765;DHT22;38650;44.536;18.664;2023-07-13T13:49:20;41.20;44.10
52765;DHT22;38650;44.536;18.664;2023-07-13T13:51:46;41.20;44.50
52765;DHT22;38650;44.536;18.664;2023-07-13T13:54:12;41.40;46.20
52765;DHT22;38650;44.536;18.664;2023-07-13T13:56:41;41.50;44.60
52765;DHT22;38650;44.536;18.664;2023-07-13T13:59:06;41.50;43.50
52765;DHT22;38650;44.536;18.664;2023-07-13T14:01:34;41.70;45.00
52765;DHT22;38650;44.536;18.664;2023-07-13T14:04:00;41.60;42.90
52765;DHT22;38650;44.536;18.664;2023-07-13T14:06:25;41.60;44.40
52765;DHT22;38650;44.536;18.664;2023-07-13T14:08:51;41.60;42.70
52765;DHT22;38650;44.536;18.664;2023-07-13T14:11:18;41.60;42.40
52765;DHT22;38650;44.536;18.664;2023-07-13T14:13:53;41.40;42.50
52765;DHT22;38650;44.536;18.664;2023-07-13T14:16:20;41.10;44.30
52765;DHT22;38650;44.536;18.664;2023-07-13T14:18:46;41.10;43.30
52765;DHT22;38650;44.536;18.664;2023-07-13T14:21:15;40.80;43.00
52765;DHT22;38650;44.536;18.664;2023-07-13T14:23:42;40.70;42.50
52765;DHT22;38650;44.536;18.664;2023-07-13T14:26:12;40.50;43.90
52765;DHT22;38650;44.536;18.664;2023-07-13T14:28:38;40.50;43.70
52765;DHT22;38650;44.536;18.664;2023-07-13T14:31:06;40.50;44.70
52765;DHT22;38650;44.536;18.664;2023-07-13T14:33:31;40.50;44.50
52765;DHT22;38650;44.536;18.664;2023-07-13T14:35:57;40.30;43.10
52765;DHT22;38650;44.536;18.664;2023-07-13T14:38:23;40.30;44.40
52765;DHT22;38650;44.536;18.664;2023-07-13T14:40:49;40.20;45.80
52765;DHT22;38650;44.536;18.664;2023-07-13T14:43:15;39.90;45.50
52765;DHT22;38650;44.536;18.664;2023-07-13T14:45:41;39.70;48.00
52765;DHT22;38650;44.536;18.664;2023-07-13T14:48:17;39.50;45.00
52765;DHT22;38650;44.536;18.664;2023-07-13T14:50:44;39.20;46.30
52765;DHT22;38650;44.536;18.664;2023-07-13T14:53:10;39.10;47.40
52765;DHT22;38650;44.536;18.664;2023-07-13T14:55:36;38.90;48.90
52765;DHT22;38650;44.536;18.664;2023-07-13T14:58:02;38.90;49.10
52765;DHT22;38650;44.536;18.664;2023-07-13T15:00:27;38.60;47.90
52765;DHT22;38650;44.536;18.664;2023-07-13T15:02:54;38.60;50.20
52765;DHT22;38650;44.536;18.664;2023-07-13T15:05:22;38.50;48.30
52765;DHT22;38650;44.536;18.664;2023-07-13T15:07:50;38.50;49.40
52765;DHT22;38650;44.536;18.664;2023-07-13T15:10:16;38.40;48.60
52765;DHT22;38650;44.536;18.664;2023-07-13T15:12:42;38.20;48.40
52765;DHT22;38650;44.536;18.664;2023-07-13T15:15:08;37.90;51.00
52765;DHT22;38650;44.536;18.664;2023-07-13T15:17:35;37.40;53.10
52765;DHT22;38650;44.536;18.664;2023-07-13T15:20:04;37.10;53.30
52765;DHT22;38650;44.536;18.664;2023-07-13T15:22:31;36.90;54.40
52765;DHT22;38650;44.536;18.664;2023-07-13T15:24:57;36.80;55.10
52765;DHT22;38650;44.536;18.664;2023-07-13T15:27:22;36.70;54.70
52765;DHT22;38650;44.536;18.664;2023-07-13T15:29:48;36.60;55.20
52765;DHT22;38650;44.536;18.664;2023-07-13T15:32:13;36.50;55.90
52765;DHT22;38650;44.536;18.664;2023-07-13T15:34:39;36.40;55.80
52765;DHT22;38650;44.536;18.664;2023-07-13T15:37:15;36.30;56.30
52765;DHT22;38650;44.536;18.664;2023-07-13T15:39:41;36.00;57.20
52765;DHT22;38650;44.536;18.664;2023-07-13T15:42:12;35.70;59.00
52765;DHT22;38650;44.536;18.664;2023-07-13T15:44:39;35.80;58.40
52765;DHT22;38650;44.536;18.664;2023-07-13T15:47:05;35.80;57.00
52765;DHT22;38650;44.536;18.664;2023-07-13T15:49:32;35.60;57.80
52765;DHT22;38650;44.536;18.664;2023-07-13T15:51:57;35.20;60.00
52765;DHT22;38650;44.536;18.664;2023-07-13T15:54:23;34.90;60.30